الصفحة الرئيسية
METAR-TAF:

METAR-TAF

مطار :

مطار طريف المحلي

طريف, السعودية

دائرة عرض: 31-41N, خط طول: 038-44E, ارتفاع: 813 متر

مراقبة الطقس الحالي

تاريخ ووقت الإصدار 34 دقيقة قبل الساعة 03:00UTC
ريح 8 عقدة من الشرق
درجة الحرارة 26°درجة مئوية
الرطوبة 16%
ضغط 1011 hPa
الرؤية 10 كم أو أكثر
الغيوم لا تقل 1500 م ولا وجود لمزنة ركامية السحاب الأسود

METAR: OETR 190300Z 08008KT CAVOK 26/M02 Q1011 NOSIG

زمن: 06:34 (03:34 UTC)

توقعات

تاريخ ووقت الإصدار 4ساعات و 34 دقيقة قبل الساعة 23:00UTC
التوقعات صالحة من19 الساعة 00 UTC إلى 20 الساعة 06 UTC
ريح 10 عقدة من الشرق
الرؤية 10 كم أو أكثر
غيوم قليلة على ارتفاع 3000 قدم
أصبح
من 19 الساعة 06 UTC إلى 19 الساعة 08 UTC
ريح 14 عقدة من الجنوب
نظرية الاحتمالات 30% :
مؤقت
من 19 الساعة 10 UTC إلى 19 الساعة 16 UTC
غيوم قليلة على ارتفاع 3500 قدم, مزنة ركامية.
أصبح
من 19 الساعة 18 UTC إلى 19 الساعة 20 UTC
ريح 12 عقدة من الشمال/الشمال الشرقي

TAF: OETR 182300Z 1900/2006 09010KT 9999 FEW030 BECMG 1906/1908 18014KT PROB30 TEMPO 1910/1916 FEW035CB BECMG 1918/1920 03012KT

أرصاد الطقس والتوقعات من أكثر من 4000 مطار (تقارير الطقس للمطار METAR والتنبؤ بالطقس بالمطارTAF).

المحطات المتاحة هي النقط الصفراء والحمراء على الخريطة.

حرك المؤشر فوق النقطة لمعرفة اسم المحطة.

ثم انقر لمعرفة أرصاد وتوقعات الطقس.

لتغيير الخارطة: اضغط على الأزرار الخضراء مع رمز الصليب الأسود للتكبير. على الزر الأخضر مع شرطة للتصغير، أو على الأسهم الخضراء للخرائط المجاورة.


METAR-TAF: